»·PEaware :: N2365C KSNA-KBUR

N2365C :: KSNA-KBUR

FLIGHT INFORMATION

Flight Status: Arrived
Operator: Privately registered:
United States
More flights under this callsign
Pilot: Anonymous 31979 (31979)
Aircraft: Unknown
(CE T)
More flights by this aircraft type
Origin: KSNA John Wayne-Orange Co
United States
Destination: KBUR Bob Hope-Burbank
United States
More flights between these airports :: More routes between these airports
Route: +SLI V23 POPPR SMO125 SMO SMO311 SILEX
File this flight plan on PilotEdge
Remarks: TEC route CSTP1
Altitude:
(Current/Filed)
4,000ft
Speed:
(Current/Filed)
140kts
Departed: 20-Nov-20 09:46 AM
Arrived: 20-Nov-20 10:19 AM
Distance/Time
Traveled:
40nm/0:33
Distance/Time
To Go:
Arrived

Flight Plot

Page will automatically refresh every two minutes.


Map Options




Map Legend


Flown Route
Filed Route
Departure Airport
Arrival Airport
Navaid (VOR, NDB)
Fix

Horizontal Profiles

Position Reports

Time Latitude Longitude Heading Altitude Ground
Speed
20-Nov-20 09:22 33.675755 -117.871531 220 60ft 0kts
20-Nov-20 09:23 33.675755 -117.871531 220 60ft 0kts
20-Nov-20 09:24 33.675755 -117.871531 220 60ft 0kts
20-Nov-20 09:25 33.675755 -117.871531 220 60ft 0kts
20-Nov-20 09:26 33.675755 -117.871531 220 60ft 0kts
20-Nov-20 09:27 33.675755 -117.871531 220 60ft 0kts
20-Nov-20 09:28 33.675755 -117.871531 220 60ft 0kts
20-Nov-20 09:29 33.675755 -117.871531 220 60ft 0kts
20-Nov-20 09:30 33.675755 -117.871531 220 60ft 0kts
20-Nov-20 09:31 33.675755 -117.871531 220 60ft 0kts
20-Nov-20 09:32 33.675755 -117.871531 220 60ft 0kts
20-Nov-20 09:33 33.675755 -117.871531 220 60ft 0kts
20-Nov-20 09:34 33.675755 -117.871531 220 60ft 0kts
20-Nov-20 09:35 33.675755 -117.871531 220 60ft 0kts
20-Nov-20 09:36 33.675755 -117.871531 220 60ft 0kts
20-Nov-20 09:37 33.675755 -117.871531 220 60ft 0kts
20-Nov-20 09:37 33.675755 -117.871531 220 60ft 0kts
20-Nov-20 09:38 33.675415 -117.871155 129 60ft 4kts
20-Nov-20 09:39 33.675937 -117.870172 27 60ft 5kts
20-Nov-20 09:41 33.678718 -117.868397 27 60ft 11kts
20-Nov-20 09:41 33.680916 -117.867208 27 60ft 8kts
20-Nov-20 09:43 33.681251 -117.866552 104 60ft 0kts
20-Nov-20 09:43 33.681251 -117.866552 104 60ft 0kts
20-Nov-20 09:44 33.681251 -117.866552 104 60ft 0kts
20-Nov-20 09:45 33.671590 -117.871914 211 583ft 82kts
20-Nov-20 09:46 33.652758 -117.895881 232 1493ft 112kts
20-Nov-20 09:47 33.632621 -117.926546 234 2290ft 119kts
20-Nov-20 09:48 33.652625 -117.943738 2 3115ft 118kts
20-Nov-20 09:49 33.685780 -117.942543 1 3914ft 120kts
20-Nov-20 09:50 33.724351 -117.941623 0 4002ft 150kts
20-Nov-20 09:51 33.766771 -117.940603 341 3995ft 154kts
20-Nov-20 09:52 33.793059 -117.979715 297 4000ft 154kts
20-Nov-20 09:53 33.799685 -118.030638 270 4000ft 155kts
20-Nov-20 09:54 33.798260 -118.083275 267 3809ft 155kts
20-Nov-20 09:55 33.803188 -118.130903 283 3806ft 139kts
20-Nov-20 09:56 33.812353 -118.175594 285 3807ft 137kts
20-Nov-20 09:57 33.822605 -118.219762 285 3807ft 136kts
20-Nov-20 09:58 33.833623 -118.263451 287 3807ft 136kts
20-Nov-20 09:59 33.856287 -118.298686 317 3807ft 136kts
20-Nov-20 10:00 33.884211 -118.329661 316 3807ft 136kts
20-Nov-20 10:01 33.911970 -118.360969 317 3807ft 136kts
20-Nov-20 10:02 33.940086 -118.391651 319 3807ft 136kts
20-Nov-20 10:03 33.968758 -118.421794 319 3807ft 136kts
20-Nov-20 10:04 33.998377 -118.450605 322 3807ft 136kts
20-Nov-20 10:05 34.028764 -118.477918 325 3807ft 136kts
20-Nov-20 10:06 34.058282 -118.506246 305 3806ft 136kts
20-Nov-20 10:07 34.079873 -118.543972 304 3807ft 136kts
20-Nov-20 10:08 34.101460 -118.581715 304 3807ft 136kts
20-Nov-20 10:09 34.123092 -118.619522 305 3807ft 136kts
20-Nov-20 10:10 34.159087 -118.624744 24 3800ft 136kts
20-Nov-20 10:11 34.178991 -118.586631 62 3807ft 136kts
20-Nov-20 10:12 34.197512 -118.544757 66 3290ft 125kts
20-Nov-20 10:13 34.199810 -118.510315 90 2822ft 96kts
20-Nov-20 10:14 34.199298 -118.480009 91 2796ft 96kts
20-Nov-20 10:15 34.198520 -118.447681 91 2098ft 87kts
20-Nov-20 10:16 34.198504 -118.418154 89 1612ft 95kts
20-Nov-20 10:17 34.198187 -118.386789 91 1050ft 90kts
20-Nov-20 10:18 34.197857 -118.364366 89 721ft 35kts
20-Nov-20 10:19 34.198737 -118.360148 22 718ft 0kts
20-Nov-20 10:20 34.199177 -118.360230 359 720ft 7kts
20-Nov-20 10:21 34.199893 -118.359562 350 721ft 0kts

Navigation Log

Ident Type
Flight plan parsing failed, navigation log unavailable